Terminal Aerodrome Forecast
Issued by NWS Wilmington, OH

Current Version | Previous Version | Graphics & Text | Print | Product List | Glossary On
Versions: 1 2 3 4 5 6 7 8 9 10 11 12 13 14 15 16 17 18 19 20 21 22 23 24 25 26 27 28 29 30 31
000
FTUS41 KILN 011456 AAA
TAFCVG
TAF AMD
KCVG 011456Z 0115/0218 29005KT P6SM FEW250
     FM012300 28004KT P6SM SCT250
     FM020900 23006KT P6SM SCT250
     FM021500 24010KT P6SM SCT040=

USA.gov is the U.S. government's official web portal to all federal, state and local government web resources and services.